sensor_id;sensor_type;location;lat;lon;timestamp;P1;durP1;ratioP1;P2;durP2;ratioP2
75535;SDS011;64119;52.070;20.804;2023-07-08T00:01:11;4.60;;;3.30;;
75535;SDS011;64119;52.070;20.804;2023-07-08T00:03:45;5.40;;;3.60;;
75535;SDS011;64119;52.070;20.804;2023-07-08T00:06:21;6.00;;;3.70;;
75535;SDS011;64119;52.070;20.804;2023-07-08T00:08:51;4.90;;;3.30;;
75535;SDS011;64119;52.070;20.804;2023-07-08T00:11:18;5.80;;;3.50;;
75535;SDS011;64119;52.070;20.804;2023-07-08T00:13:45;6.00;;;3.40;;
75535;SDS011;64119;52.070;20.804;2023-07-08T00:16:14;9.60;;;3.60;;
75535;SDS011;64119;52.070;20.804;2023-07-08T00:18:45;4.00;;;3.00;;
75535;SDS011;64119;52.070;20.804;2023-07-08T00:21:13;6.30;;;3.30;;
75535;SDS011;64119;52.070;20.804;2023-07-08T00:23:49;5.70;;;3.30;;
75535;SDS011;64119;52.070;20.804;2023-07-08T00:26:22;5.40;;;3.60;;
75535;SDS011;64119;52.070;20.804;2023-07-08T00:28:51;4.90;;;3.30;;
75535;SDS011;64119;52.070;20.804;2023-07-08T00:31:20;5.20;;;3.00;;
75535;SDS011;64119;52.070;20.804;2023-07-08T00:33:50;5.90;;;3.90;;
75535;SDS011;64119;52.070;20.804;2023-07-08T00:36:17;5.20;;;3.10;;
75535;SDS011;64119;52.070;20.804;2023-07-08T00:38:44;8.50;;;3.40;;
75535;SDS011;64119;52.070;20.804;2023-07-08T00:41:20;6.70;;;3.90;;
75535;SDS011;64119;52.070;20.804;2023-07-08T00:43:52;5.50;;;3.50;;
75535;SDS011;64119;52.070;20.804;2023-07-08T00:46:25;5.50;;;3.60;;
75535;SDS011;64119;52.070;20.804;2023-07-08T00:51:33;7.20;;;3.80;;
75535;SDS011;64119;52.070;20.804;2023-07-08T00:54:00;4.40;;;3.10;;
75535;SDS011;64119;52.070;20.804;2023-07-08T00:56:36;7.60;;;3.60;;
75535;SDS011;64119;52.070;20.804;2023-07-08T00:59:10;4.30;;;3.40;;
75535;SDS011;64119;52.070;20.804;2023-07-08T01:01:44;4.00;;;3.10;;
75535;SDS011;64119;52.070;20.804;2023-07-08T01:04:12;4.10;;;2.90;;
75535;SDS011;64119;52.070;20.804;2023-07-08T01:06:44;5.80;;;3.60;;
75535;SDS011;64119;52.070;20.804;2023-07-08T01:09:27;4.50;;;3.10;;
75535;SDS011;64119;52.070;20.804;2023-07-08T01:11:57;4.70;;;3.30;;
75535;SDS011;64119;52.070;20.804;2023-07-08T01:14:29;4.40;;;3.30;;
75535;SDS011;64119;52.070;20.804;2023-07-08T01:16:59;4.70;;;3.20;;
75535;SDS011;64119;52.070;20.804;2023-07-08T01:19:26;4.50;;;3.40;;
75535;SDS011;64119;52.070;20.804;2023-07-08T01:22:04;5.00;;;3.70;;
75535;SDS011;64119;52.070;20.804;2023-07-08T01:24:33;5.50;;;3.50;;
75535;SDS011;64119;52.070;20.804;2023-07-08T01:27:02;4.30;;;3.10;;
75535;SDS011;64119;52.070;20.804;2023-07-08T01:29:31;5.40;;;3.80;;
75535;SDS011;64119;52.070;20.804;2023-07-08T01:31:58;5.10;;;3.50;;
75535;SDS011;64119;52.070;20.804;2023-07-08T01:34:29;4.10;;;3.20;;
75535;SDS011;64119;52.070;20.804;2023-07-08T01:36:56;6.00;;;3.50;;
75535;SDS011;64119;52.070;20.804;2023-07-08T01:39:24;5.40;;;3.70;;
75535;SDS011;64119;52.070;20.804;2023-07-08T01:41:53;5.00;;;2.80;;
75535;SDS011;64119;52.070;20.804;2023-07-08T01:44:29;6.40;;;3.30;;
75535;SDS011;64119;52.070;20.804;2023-07-08T01:46:59;5.00;;;3.10;;
75535;SDS011;64119;52.070;20.804;2023-07-08T01:49:32;6.90;;;4.10;;
75535;SDS011;64119;52.070;20.804;2023-07-08T01:52:02;5.10;;;3.20;;
75535;SDS011;64119;52.070;20.804;2023-07-08T01:54:29;4.70;;;3.20;;
75535;SDS011;64119;52.070;20.804;2023-07-08T01:56:56;5.30;;;3.40;;
75535;SDS011;64119;52.070;20.804;2023-07-08T01:59:23;4.70;;;3.30;;
75535;SDS011;64119;52.070;20.804;2023-07-08T02:01:50;6.80;;;3.50;;
75535;SDS011;64119;52.070;20.804;2023-07-08T02:04:21;4.30;;;3.40;;
75535;SDS011;64119;52.070;20.804;2023-07-08T02:06:54;5.30;;;3.40;;
75535;SDS011;64119;52.070;20.804;2023-07-08T02:09:22;4.00;;;3.10;;
75535;SDS011;64119;52.070;20.804;2023-07-08T02:11:51;5.40;;;2.90;;
75535;SDS011;64119;52.070;20.804;2023-07-08T02:14:20;6.70;;;3.40;;
75535;SDS011;64119;52.070;20.804;2023-07-08T02:16:47;4.00;;;3.20;;
75535;SDS011;64119;52.070;20.804;2023-07-08T02:19:14;4.00;;;3.00;;
75535;SDS011;64119;52.070;20.804;2023-07-08T02:21:40;5.00;;;3.20;;
75535;SDS011;64119;52.070;20.804;2023-07-08T02:24:07;3.70;;;3.20;;
75535;SDS011;64119;52.070;20.804;2023-07-08T02:26:34;6.40;;;3.90;;
75535;SDS011;64119;52.070;20.804;2023-07-08T02:29:01;5.00;;;3.30;;
75535;SDS011;64119;52.070;20.804;2023-07-08T02:31:27;4.80;;;3.20;;
75535;SDS011;64119;52.070;20.804;2023-07-08T02:33:54;5.10;;;3.20;;
75535;SDS011;64119;52.070;20.804;2023-07-08T02:36:21;4.00;;;3.40;;
75535;SDS011;64119;52.070;20.804;2023-07-08T02:38:47;6.80;;;3.30;;
75535;SDS011;64119;52.070;20.804;2023-07-08T02:41:14;5.70;;;3.40;;
75535;SDS011;64119;52.070;20.804;2023-07-08T02:43:40;4.60;;;3.40;;
75535;SDS011;64119;52.070;20.804;2023-07-08T02:46:06;4.50;;;3.00;;
75535;SDS011;64119;52.070;20.804;2023-07-08T02:48:33;4.50;;;3.40;;
75535;SDS011;64119;52.070;20.804;2023-07-08T02:51:00;4.20;;;3.20;;
75535;SDS011;64119;52.070;20.804;2023-07-08T02:53:28;5.00;;;3.00;;
75535;SDS011;64119;52.070;20.804;2023-07-08T02:55:55;4.10;;;3.10;;
75535;SDS011;64119;52.070;20.804;2023-07-08T02:58:22;5.60;;;3.60;;
75535;SDS011;64119;52.070;20.804;2023-07-08T03:00:55;4.40;;;2.90;;
75535;SDS011;64119;52.070;20.804;2023-07-08T03:03:26;4.70;;;3.40;;
75535;SDS011;64119;52.070;20.804;2023-07-08T03:05:59;4.80;;;3.10;;
75535;SDS011;64119;52.070;20.804;2023-07-08T03:08:30;3.90;;;3.30;;
75535;SDS011;64119;52.070;20.804;2023-07-08T03:10:57;5.60;;;3.60;;
75535;SDS011;64119;52.070;20.804;2023-07-08T03:13:26;6.30;;;3.50;;
75535;SDS011;64119;52.070;20.804;2023-07-08T03:15:55;5.70;;;3.50;;
75535;SDS011;64119;52.070;20.804;2023-07-08T03:18:22;4.90;;;3.30;;
75535;SDS011;64119;52.070;20.804;2023-07-08T03:20:54;6.40;;;3.50;;
75535;SDS011;64119;52.070;20.804;2023-07-08T03:23:23;6.10;;;3.50;;
75535;SDS011;64119;52.070;20.804;2023-07-08T03:25:51;6.40;;;3.50;;
75535;SDS011;64119;52.070;20.804;2023-07-08T03:28:19;3.90;;;3.00;;
75535;SDS011;64119;52.070;20.804;2023-07-08T03:30:50;6.30;;;3.30;;
75535;SDS011;64119;52.070;20.804;2023-07-08T03:33:18;4.60;;;3.50;;
75535;SDS011;64119;52.070;20.804;2023-07-08T03:35:45;5.00;;;3.50;;
75535;SDS011;64119;52.070;20.804;2023-07-08T03:38:12;5.00;;;3.50;;
75535;SDS011;64119;52.070;20.804;2023-07-08T03:40:39;5.20;;;3.50;;
75535;SDS011;64119;52.070;20.804;2023-07-08T03:43:06;5.30;;;3.50;;
75535;SDS011;64119;52.070;20.804;2023-07-08T03:45:32;5.00;;;3.60;;
75535;SDS011;64119;52.070;20.804;2023-07-08T03:47:59;5.70;;;4.00;;
75535;SDS011;64119;52.070;20.804;2023-07-08T03:50:26;5.20;;;4.00;;
75535;SDS011;64119;52.070;20.804;2023-07-08T03:52:53;5.40;;;3.60;;
75535;SDS011;64119;52.070;20.804;2023-07-08T03:55:22;7.60;;;3.90;;
75535;SDS011;64119;52.070;20.804;2023-07-08T03:57:49;4.50;;;3.70;;
75535;SDS011;64119;52.070;20.804;2023-07-08T04:00:16;5.30;;;3.80;;
75535;SDS011;64119;52.070;20.804;2023-07-08T04:02:42;5.80;;;3.40;;
75535;SDS011;64119;52.070;20.804;2023-07-08T04:05:20;4.70;;;3.50;;
75535;SDS011;64119;52.070;20.804;2023-07-08T04:07:48;5.80;;;4.40;;
75535;SDS011;64119;52.070;20.804;2023-07-08T04:10:14;4.50;;;3.10;;
75535;SDS011;64119;52.070;20.804;2023-07-08T04:12:42;7.20;;;3.90;;
75535;SDS011;64119;52.070;20.804;2023-07-08T04:15:09;4.70;;;3.50;;
75535;SDS011;64119;52.070;20.804;2023-07-08T04:17:45;5.30;;;4.00;;
75535;SDS011;64119;52.070;20.804;2023-07-08T04:20:14;6.40;;;3.70;;
75535;SDS011;64119;52.070;20.804;2023-07-08T04:22:41;8.10;;;4.10;;
75535;SDS011;64119;52.070;20.804;2023-07-08T04:25:08;8.60;;;4.20;;
75535;SDS011;64119;52.070;20.804;2023-07-08T04:27:36;5.20;;;4.00;;
75535;SDS011;64119;52.070;20.804;2023-07-08T04:30:03;6.90;;;4.00;;
75535;SDS011;64119;52.070;20.804;2023-07-08T04:32:30;5.20;;;3.80;;
75535;SDS011;64119;52.070;20.804;2023-07-08T04:34:57;4.30;;;3.10;;
75535;SDS011;64119;52.070;20.804;2023-07-08T04:37:23;4.60;;;3.40;;
75535;SDS011;64119;52.070;20.804;2023-07-08T04:39:49;6.60;;;3.50;;
75535;SDS011;64119;52.070;20.804;2023-07-08T04:42:16;4.90;;;3.70;;
75535;SDS011;64119;52.070;20.804;2023-07-08T04:44:44;4.70;;;3.40;;
75535;SDS011;64119;52.070;20.804;2023-07-08T04:47:10;4.80;;;3.60;;
75535;SDS011;64119;52.070;20.804;2023-07-08T04:49:39;4.40;;;3.20;;
75535;SDS011;64119;52.070;20.804;2023-07-08T04:52:09;4.40;;;3.30;;
75535;SDS011;64119;52.070;20.804;2023-07-08T04:54:36;5.20;;;2.90;;
75535;SDS011;64119;52.070;20.804;2023-07-08T04:57:05;3.80;;;2.90;;
75535;SDS011;64119;52.070;20.804;2023-07-08T05:02:00;3.90;;;2.80;;
75535;SDS011;64119;52.070;20.804;2023-07-08T05:04:27;4.40;;;3.00;;
75535;SDS011;64119;52.070;20.804;2023-07-08T05:06:53;4.20;;;3.60;;
75535;SDS011;64119;52.070;20.804;2023-07-08T05:09:20;4.80;;;3.10;;
75535;SDS011;64119;52.070;20.804;2023-07-08T05:11:48;3.50;;;3.00;;
75535;SDS011;64119;52.070;20.804;2023-07-08T05:14:14;4.20;;;2.90;;
75535;SDS011;64119;52.070;20.804;2023-07-08T05:16:41;4.50;;;2.90;;
75535;SDS011;64119;52.070;20.804;2023-07-08T05:19:07;4.80;;;2.40;;
75535;SDS011;64119;52.070;20.804;2023-07-08T05:21:34;4.20;;;2.70;;
75535;SDS011;64119;52.070;20.804;2023-07-08T05:24:04;3.80;;;2.70;;
75535;SDS011;64119;52.070;20.804;2023-07-08T05:26:31;3.70;;;2.50;;
75535;SDS011;64119;52.070;20.804;2023-07-08T05:28:58;3.80;;;2.80;;
75535;SDS011;64119;52.070;20.804;2023-07-08T05:31:24;7.80;;;3.10;;
75535;SDS011;64119;52.070;20.804;2023-07-08T05:34:07;6.30;;;3.40;;
75535;SDS011;64119;52.070;20.804;2023-07-08T05:36:34;6.30;;;3.20;;
75535;SDS011;64119;52.070;20.804;2023-07-08T05:39:00;4.60;;;2.80;;
75535;SDS011;64119;52.070;20.804;2023-07-08T05:41:29;5.30;;;2.40;;
75535;SDS011;64119;52.070;20.804;2023-07-08T05:43:55;3.70;;;2.40;;
75535;SDS011;64119;52.070;20.804;2023-07-08T05:46:21;3.50;;;2.60;;
75535;SDS011;64119;52.070;20.804;2023-07-08T05:48:48;3.70;;;2.40;;
75535;SDS011;64119;52.070;20.804;2023-07-08T05:51:15;4.20;;;2.60;;
75535;SDS011;64119;52.070;20.804;2023-07-08T05:53:41;3.60;;;3.00;;
75535;SDS011;64119;52.070;20.804;2023-07-08T05:56:08;4.30;;;3.40;;
75535;SDS011;64119;52.070;20.804;2023-07-08T05:58:34;5.00;;;3.90;;
75535;SDS011;64119;52.070;20.804;2023-07-08T06:01:00;6.50;;;3.80;;
75535;SDS011;64119;52.070;20.804;2023-07-08T06:03:27;5.80;;;3.60;;
75535;SDS011;64119;52.070;20.804;2023-07-08T06:05:54;3.50;;;2.70;;
75535;SDS011;64119;52.070;20.804;2023-07-08T06:08:20;4.40;;;2.70;;
75535;SDS011;64119;52.070;20.804;2023-07-08T06:10:47;3.30;;;2.40;;
75535;SDS011;64119;52.070;20.804;2023-07-08T06:13:13;4.00;;;2.00;;
75535;SDS011;64119;52.070;20.804;2023-07-08T06:15:40;3.30;;;2.10;;
75535;SDS011;64119;52.070;20.804;2023-07-08T06:18:07;3.70;;;2.30;;
75535;SDS011;64119;52.070;20.804;2023-07-08T06:20:34;3.90;;;2.20;;
75535;SDS011;64119;52.070;20.804;2023-07-08T06:23:00;3.30;;;2.60;;
75535;SDS011;64119;52.070;20.804;2023-07-08T06:25:27;5.20;;;2.10;;
75535;SDS011;64119;52.070;20.804;2023-07-08T06:27:53;4.30;;;2.00;;
75535;SDS011;64119;52.070;20.804;2023-07-08T06:30:20;3.30;;;1.80;;
75535;SDS011;64119;52.070;20.804;2023-07-08T06:32:47;2.80;;;2.00;;
75535;SDS011;64119;52.070;20.804;2023-07-08T06:35:13;3.20;;;2.00;;
75535;SDS011;64119;52.070;20.804;2023-07-08T06:37:40;4.50;;;2.20;;
75535;SDS011;64119;52.070;20.804;2023-07-08T06:40:07;3.50;;;1.70;;
75535;SDS011;64119;52.070;20.804;2023-07-08T06:42:34;3.50;;;2.00;;
75535;SDS011;64119;52.070;20.804;2023-07-08T06:45:09;3.10;;;2.00;;
75535;SDS011;64119;52.070;20.804;2023-07-08T06:47:37;3.30;;;1.60;;
75535;SDS011;64119;52.070;20.804;2023-07-08T06:50:03;3.50;;;1.90;;
75535;SDS011;64119;52.070;20.804;2023-07-08T06:52:30;3.10;;;2.00;;
75535;SDS011;64119;52.070;20.804;2023-07-08T06:55:00;3.40;;;1.90;;
75535;SDS011;64119;52.070;20.804;2023-07-08T06:57:31;4.40;;;2.10;;
75535;SDS011;64119;52.070;20.804;2023-07-08T06:59:58;2.80;;;1.70;;
75535;SDS011;64119;52.070;20.804;2023-07-08T07:02:24;3.40;;;2.00;;
75535;SDS011;64119;52.070;20.804;2023-07-08T07:04:50;3.20;;;1.60;;
75535;SDS011;64119;52.070;20.804;2023-07-08T07:07:17;3.90;;;1.70;;
75535;SDS011;64119;52.070;20.804;2023-07-08T07:09:43;2.00;;;1.50;;
75535;SDS011;64119;52.070;20.804;2023-07-08T07:12:09;3.00;;;1.90;;
75535;SDS011;64119;52.070;20.804;2023-07-08T07:14:36;2.50;;;1.70;;
75535;SDS011;64119;52.070;20.804;2023-07-08T07:17:05;3.10;;;1.60;;
75535;SDS011;64119;52.070;20.804;2023-07-08T07:19:35;3.30;;;1.80;;
75535;SDS011;64119;52.070;20.804;2023-07-08T07:22:01;3.00;;;1.70;;
75535;SDS011;64119;52.070;20.804;2023-07-08T07:24:28;2.60;;;1.60;;
75535;SDS011;64119;52.070;20.804;2023-07-08T07:26:54;4.50;;;1.60;;
75535;SDS011;64119;52.070;20.804;2023-07-08T07:29:21;12.80;;;3.10;;
75535;SDS011;64119;52.070;20.804;2023-07-08T07:31:49;6.60;;;2.30;;
75535;SDS011;64119;52.070;20.804;2023-07-08T07:34:17;15.00;;;3.90;;
75535;SDS011;64119;52.070;20.804;2023-07-08T07:36:43;8.90;;;2.60;;
75535;SDS011;64119;52.070;20.804;2023-07-08T07:39:10;3.20;;;1.90;;
75535;SDS011;64119;52.070;20.804;2023-07-08T07:41:36;3.20;;;1.90;;
75535;SDS011;64119;52.070;20.804;2023-07-08T07:44:02;4.00;;;1.70;;
75535;SDS011;64119;52.070;20.804;2023-07-08T07:46:29;3.60;;;1.80;;
75535;SDS011;64119;52.070;20.804;2023-07-08T07:48:56;4.10;;;1.70;;
75535;SDS011;64119;52.070;20.804;2023-07-08T07:51:22;2.80;;;1.70;;
75535;SDS011;64119;52.070;20.804;2023-07-08T07:53:48;2.60;;;1.90;;
75535;SDS011;64119;52.070;20.804;2023-07-08T07:56:15;3.20;;;1.70;;
75535;SDS011;64119;52.070;20.804;2023-07-08T07:58:41;3.30;;;1.80;;
75535;SDS011;64119;52.070;20.804;2023-07-08T08:01:08;4.70;;;1.80;;
75535;SDS011;64119;52.070;20.804;2023-07-08T08:03:35;4.10;;;1.80;;
75535;SDS011;64119;52.070;20.804;2023-07-08T08:06:03;4.60;;;1.80;;
75535;SDS011;64119;52.070;20.804;2023-07-08T08:08:29;3.30;;;1.60;;
75535;SDS011;64119;52.070;20.804;2023-07-08T08:10:57;2.30;;;1.50;;
75535;SDS011;64119;52.070;20.804;2023-07-08T08:13:23;2.60;;;2.10;;
75535;SDS011;64119;52.070;20.804;2023-07-08T08:15:55;2.20;;;1.50;;
75535;SDS011;64119;52.070;20.804;2023-07-08T08:18:22;2.40;;;1.60;;
75535;SDS011;64119;52.070;20.804;2023-07-08T08:20:50;2.80;;;1.80;;
75535;SDS011;64119;52.070;20.804;2023-07-08T08:23:17;2.60;;;1.70;;
75535;SDS011;64119;52.070;20.804;2023-07-08T08:25:44;2.40;;;1.80;;
75535;SDS011;64119;52.070;20.804;2023-07-08T08:28:11;2.40;;;1.80;;
75535;SDS011;64119;52.070;20.804;2023-07-08T08:30:38;2.70;;;1.40;;
75535;SDS011;64119;52.070;20.804;2023-07-08T08:33:06;3.20;;;1.40;;
75535;SDS011;64119;52.070;20.804;2023-07-08T08:35:32;2.80;;;1.70;;
75535;SDS011;64119;52.070;20.804;2023-07-08T08:38:00;2.40;;;1.40;;
75535;SDS011;64119;52.070;20.804;2023-07-08T08:40:26;3.40;;;1.90;;
75535;SDS011;64119;52.070;20.804;2023-07-08T08:42:53;3.60;;;1.50;;
75535;SDS011;64119;52.070;20.804;2023-07-08T08:45:25;2.40;;;1.60;;
75535;SDS011;64119;52.070;20.804;2023-07-08T08:47:58;2.80;;;1.60;;
75535;SDS011;64119;52.070;20.804;2023-07-08T08:50:33;3.70;;;1.70;;
75535;SDS011;64119;52.070;20.804;2023-07-08T08:53:08;2.90;;;1.50;;
75535;SDS011;64119;52.070;20.804;2023-07-08T08:55:40;2.30;;;1.50;;
75535;SDS011;64119;52.070;20.804;2023-07-08T09:00:59;2.50;;;1.60;;
75535;SDS011;64119;52.070;20.804;2023-07-08T09:06:13;3.40;;;2.00;;
75535;SDS011;64119;52.070;20.804;2023-07-08T09:08:56;3.80;;;2.30;;
75535;SDS011;64119;52.070;20.804;2023-07-08T09:14:00;2.20;;;1.50;;
75535;SDS011;64119;52.070;20.804;2023-07-08T09:19:25;4.50;;;1.80;;
75535;SDS011;64119;52.070;20.804;2023-07-08T09:22:04;5.50;;;1.70;;
75535;SDS011;64119;52.070;20.804;2023-07-08T09:24:42;3.40;;;2.10;;
75535;SDS011;64119;52.070;20.804;2023-07-08T09:27:10;3.10;;;1.60;;
75535;SDS011;64119;52.070;20.804;2023-07-08T09:29:37;3.90;;;1.90;;
75535;SDS011;64119;52.070;20.804;2023-07-08T09:32:17;2.60;;;1.70;;
75535;SDS011;64119;52.070;20.804;2023-07-08T09:35:05;2.70;;;2.10;;
75535;SDS011;64119;52.070;20.804;2023-07-08T09:37:37;2.70;;;1.90;;
75535;SDS011;64119;52.070;20.804;2023-07-08T09:40:19;3.30;;;2.10;;
75535;SDS011;64119;52.070;20.804;2023-07-08T09:42:51;4.50;;;2.90;;
75535;SDS011;64119;52.070;20.804;2023-07-08T09:45:20;2.90;;;1.70;;
75535;SDS011;64119;52.070;20.804;2023-07-08T09:47:52;2.40;;;1.80;;
75535;SDS011;64119;52.070;20.804;2023-07-08T09:50:24;3.40;;;2.30;;
75535;SDS011;64119;52.070;20.804;2023-07-08T09:52:52;4.10;;;2.00;;
75535;SDS011;64119;52.070;20.804;2023-07-08T09:55:24;2.50;;;1.70;;
75535;SDS011;64119;52.070;20.804;2023-07-08T09:57:51;2.60;;;1.70;;
75535;SDS011;64119;52.070;20.804;2023-07-08T10:00:26;3.90;;;2.20;;
75535;SDS011;64119;52.070;20.804;2023-07-08T10:02:55;3.60;;;1.70;;
75535;SDS011;64119;52.070;20.804;2023-07-08T10:05:34;2.50;;;1.70;;
75535;SDS011;64119;52.070;20.804;2023-07-08T10:08:10;2.60;;;1.70;;
75535;SDS011;64119;52.070;20.804;2023-07-08T10:10:40;3.40;;;1.80;;
75535;SDS011;64119;52.070;20.804;2023-07-08T10:13:19;3.60;;;2.10;;
75535;SDS011;64119;52.070;20.804;2023-07-08T10:15:56;2.10;;;1.60;;
75535;SDS011;64119;52.070;20.804;2023-07-08T10:18:39;4.00;;;2.10;;
75535;SDS011;64119;52.070;20.804;2023-07-08T10:21:13;2.50;;;1.90;;
75535;SDS011;64119;52.070;20.804;2023-07-08T10:24:09;3.30;;;2.00;;
75535;SDS011;64119;52.070;20.804;2023-07-08T10:27:06;3.80;;;2.00;;
75535;SDS011;64119;52.070;20.804;2023-07-08T10:30:02;2.10;;;1.70;;
75535;SDS011;64119;52.070;20.804;2023-07-08T10:35:28;2.90;;;2.00;;
75535;SDS011;64119;52.070;20.804;2023-07-08T10:38:06;3.00;;;1.70;;
75535;SDS011;64119;52.070;20.804;2023-07-08T10:40:55;2.40;;;1.80;;
75535;SDS011;64119;52.070;20.804;2023-07-08T10:46:14;3.50;;;1.90;;
75535;SDS011;64119;52.070;20.804;2023-07-08T10:58:01;2.80;;;1.90;;
75535;SDS011;64119;52.070;20.804;2023-07-08T11:09:04;3.00;;;2.10;;
75535;SDS011;64119;52.070;20.804;2023-07-08T11:14:26;3.30;;;2.00;;
75535;SDS011;64119;52.070;20.804;2023-07-08T11:17:22;3.00;;;1.80;;
75535;SDS011;64119;52.070;20.804;2023-07-08T11:20:01;3.20;;;2.00;;
75535;SDS011;64119;52.070;20.804;2023-07-08T11:22:37;3.90;;;1.80;;
75535;SDS011;64119;52.070;20.804;2023-07-08T11:25:20;3.90;;;2.30;;
75535;SDS011;64119;52.070;20.804;2023-07-08T11:27:51;3.80;;;2.70;;
75535;SDS011;64119;52.070;20.804;2023-07-08T11:30:22;2.90;;;2.10;;
75535;SDS011;64119;52.070;20.804;2023-07-08T11:32:57;4.90;;;2.30;;
75535;SDS011;64119;52.070;20.804;2023-07-08T11:38:15;3.90;;;2.40;;
75535;SDS011;64119;52.070;20.804;2023-07-08T11:41:04;3.20;;;2.20;;
75535;SDS011;64119;52.070;20.804;2023-07-08T11:43:45;2.80;;;1.90;;
75535;SDS011;64119;52.070;20.804;2023-07-08T11:46:15;3.10;;;1.90;;
75535;SDS011;64119;52.070;20.804;2023-07-08T11:48:50;4.90;;;2.10;;
75535;SDS011;64119;52.070;20.804;2023-07-08T11:51:29;3.30;;;1.90;;
75535;SDS011;64119;52.070;20.804;2023-07-08T11:57:03;2.20;;;1.80;;
75535;SDS011;64119;52.070;20.804;2023-07-08T11:59:32;2.60;;;1.80;;
75535;SDS011;64119;52.070;20.804;2023-07-08T12:02:14;2.70;;;1.90;;
75535;SDS011;64119;52.070;20.804;2023-07-08T12:07:32;3.20;;;2.30;;
75535;SDS011;64119;52.070;20.804;2023-07-08T12:12:34;3.10;;;2.00;;
75535;SDS011;64119;52.070;20.804;2023-07-08T12:17:38;2.60;;;1.50;;
75535;SDS011;64119;52.070;20.804;2023-07-08T12:20:06;2.20;;;1.70;;
75535;SDS011;64119;52.070;20.804;2023-07-08T12:22:49;2.60;;;2.00;;
75535;SDS011;64119;52.070;20.804;2023-07-08T12:25:18;2.30;;;1.60;;
75535;SDS011;64119;52.070;20.804;2023-07-08T12:27:48;3.00;;;2.00;;
75535;SDS011;64119;52.070;20.804;2023-07-08T12:30:15;2.50;;;1.80;;
75535;SDS011;64119;52.070;20.804;2023-07-08T12:32:44;3.70;;;1.90;;
75535;SDS011;64119;52.070;20.804;2023-07-08T12:37:47;2.80;;;1.80;;
75535;SDS011;64119;52.070;20.804;2023-07-08T12:40:13;3.60;;;1.80;;
75535;SDS011;64119;52.070;20.804;2023-07-08T12:42:40;5.80;;;1.90;;
75535;SDS011;64119;52.070;20.804;2023-07-08T12:45:12;3.80;;;1.80;;
75535;SDS011;64119;52.070;20.804;2023-07-08T12:47:41;3.00;;;1.90;;
75535;SDS011;64119;52.070;20.804;2023-07-08T12:50:10;3.30;;;2.20;;
75535;SDS011;64119;52.070;20.804;2023-07-08T12:52:38;2.40;;;1.60;;
75535;SDS011;64119;52.070;20.804;2023-07-08T12:55:10;2.50;;;1.70;;
75535;SDS011;64119;52.070;20.804;2023-07-08T12:57:39;3.20;;;1.60;;
75535;SDS011;64119;52.070;20.804;2023-07-08T13:00:10;4.40;;;1.70;;
75535;SDS011;64119;52.070;20.804;2023-07-08T13:02:43;2.90;;;1.60;;
75535;SDS011;64119;52.070;20.804;2023-07-08T13:05:11;3.30;;;1.70;;
75535;SDS011;64119;52.070;20.804;2023-07-08T13:07:40;3.90;;;1.70;;
75535;SDS011;64119;52.070;20.804;2023-07-08T13:10:21;2.90;;;1.90;;
75535;SDS011;64119;52.070;20.804;2023-07-08T13:12:51;2.40;;;1.70;;
75535;SDS011;64119;52.070;20.804;2023-07-08T13:15:24;3.30;;;2.00;;
75535;SDS011;64119;52.070;20.804;2023-07-08T13:17:54;3.00;;;1.80;;
75535;SDS011;64119;52.070;20.804;2023-07-08T13:20:20;3.20;;;2.00;;
75535;SDS011;64119;52.070;20.804;2023-07-08T13:22:54;4.20;;;1.90;;
75535;SDS011;64119;52.070;20.804;2023-07-08T13:25:28;1.90;;;1.50;;
75535;SDS011;64119;52.070;20.804;2023-07-08T13:30:52;3.10;;;1.90;;
75535;SDS011;64119;52.070;20.804;2023-07-08T13:33:30;2.30;;;1.80;;
75535;SDS011;64119;52.070;20.804;2023-07-08T13:36:03;2.80;;;1.90;;
75535;SDS011;64119;52.070;20.804;2023-07-08T13:38:31;3.20;;;1.90;;
75535;SDS011;64119;52.070;20.804;2023-07-08T13:41:01;2.70;;;1.60;;
75535;SDS011;64119;52.070;20.804;2023-07-08T13:43:32;3.00;;;1.60;;
75535;SDS011;64119;52.070;20.804;2023-07-08T13:46:02;2.80;;;1.80;;
75535;SDS011;64119;52.070;20.804;2023-07-08T13:48:30;2.40;;;1.60;;
75535;SDS011;64119;52.070;20.804;2023-07-08T13:56:11;3.30;;;1.90;;
75535;SDS011;64119;52.070;20.804;2023-07-08T13:58:52;3.10;;;1.90;;
75535;SDS011;64119;52.070;20.804;2023-07-08T14:01:27;2.40;;;1.50;;
75535;SDS011;64119;52.070;20.804;2023-07-08T14:03:55;2.60;;;1.90;;
75535;SDS011;64119;52.070;20.804;2023-07-08T14:06:26;3.30;;;2.10;;
75535;SDS011;64119;52.070;20.804;2023-07-08T14:09:23;3.80;;;1.60;;
75535;SDS011;64119;52.070;20.804;2023-07-08T14:11:49;2.40;;;1.90;;
75535;SDS011;64119;52.070;20.804;2023-07-08T14:14:17;2.30;;;1.80;;
75535;SDS011;64119;52.070;20.804;2023-07-08T14:16:48;2.80;;;1.60;;
75535;SDS011;64119;52.070;20.804;2023-07-08T14:19:19;3.60;;;1.70;;
75535;SDS011;64119;52.070;20.804;2023-07-08T14:21:57;2.20;;;1.70;;
75535;SDS011;64119;52.070;20.804;2023-07-08T14:24:25;3.50;;;1.80;;
75535;SDS011;64119;52.070;20.804;2023-07-08T14:26:51;2.00;;;1.50;;
75535;SDS011;64119;52.070;20.804;2023-07-08T14:29:19;3.40;;;1.70;;
75535;SDS011;64119;52.070;20.804;2023-07-08T14:31:45;2.80;;;2.10;;
75535;SDS011;64119;52.070;20.804;2023-07-08T14:34:14;2.40;;;1.60;;
75535;SDS011;64119;52.070;20.804;2023-07-08T14:36:51;3.00;;;1.80;;
75535;SDS011;64119;52.070;20.804;2023-07-08T14:39:18;4.90;;;1.80;;
75535;SDS011;64119;52.070;20.804;2023-07-08T14:41:46;2.90;;;1.90;;
75535;SDS011;64119;52.070;20.804;2023-07-08T14:46:43;3.20;;;1.90;;
75535;SDS011;64119;52.070;20.804;2023-07-08T14:49:12;3.70;;;1.80;;
75535;SDS011;64119;52.070;20.804;2023-07-08T14:51:41;2.80;;;2.00;;
75535;SDS011;64119;52.070;20.804;2023-07-08T14:54:10;2.40;;;1.80;;
75535;SDS011;64119;52.070;20.804;2023-07-08T14:56:38;2.10;;;1.40;;
75535;SDS011;64119;52.070;20.804;2023-07-08T14:59:05;3.50;;;2.10;;
75535;SDS011;64119;52.070;20.804;2023-07-08T15:01:32;2.90;;;1.80;;
75535;SDS011;64119;52.070;20.804;2023-07-08T15:03:59;3.10;;;2.00;;
75535;SDS011;64119;52.070;20.804;2023-07-08T15:06:25;3.30;;;1.70;;
75535;SDS011;64119;52.070;20.804;2023-07-08T15:08:52;3.00;;;2.30;;
75535;SDS011;64119;52.070;20.804;2023-07-08T15:11:19;3.70;;;1.90;;
75535;SDS011;64119;52.070;20.804;2023-07-08T15:13:46;2.70;;;2.00;;
75535;SDS011;64119;52.070;20.804;2023-07-08T15:16:13;2.30;;;1.90;;
75535;SDS011;64119;52.070;20.804;2023-07-08T15:18:42;3.90;;;2.00;;
75535;SDS011;64119;52.070;20.804;2023-07-08T15:21:10;2.40;;;2.00;;
75535;SDS011;64119;52.070;20.804;2023-07-08T15:23:38;6.70;;;2.00;;
75535;SDS011;64119;52.070;20.804;2023-07-08T15:26:04;3.30;;;1.70;;
75535;SDS011;64119;52.070;20.804;2023-07-08T15:28:35;3.00;;;1.90;;
75535;SDS011;64119;52.070;20.804;2023-07-08T15:31:07;3.00;;;1.80;;
75535;SDS011;64119;52.070;20.804;2023-07-08T15:33:35;3.30;;;1.80;;
75535;SDS011;64119;52.070;20.804;2023-07-08T15:36:02;3.20;;;1.70;;
75535;SDS011;64119;52.070;20.804;2023-07-08T15:38:28;3.30;;;2.10;;
75535;SDS011;64119;52.070;20.804;2023-07-08T15:40:55;3.20;;;2.10;;
75535;SDS011;64119;52.070;20.804;2023-07-08T15:43:22;2.80;;;1.80;;
75535;SDS011;64119;52.070;20.804;2023-07-08T15:45:49;2.90;;;2.00;;
75535;SDS011;64119;52.070;20.804;2023-07-08T15:48:15;3.30;;;1.90;;
75535;SDS011;64119;52.070;20.804;2023-07-08T15:50:43;2.30;;;1.60;;
75535;SDS011;64119;52.070;20.804;2023-07-08T15:53:10;3.90;;;1.90;;
75535;SDS011;64119;52.070;20.804;2023-07-08T15:55:38;2.20;;;1.90;;
75535;SDS011;64119;52.070;20.804;2023-07-08T16:04:37;3.20;;;2.20;;